createdAt,value
2022-08-25T00:01:54.243Z,9.00
2022-08-25T00:04:24.798Z,8.57
2022-08-25T00:06:53.580Z,7.88
2022-08-25T00:09:22.753Z,8.57
2022-08-25T00:11:50.030Z,9.27
2022-08-25T00:14:23.691Z,8.93
2022-08-25T00:16:50.423Z,7.75
2022-08-25T00:21:47.177Z,9.15
2022-08-25T00:24:16.763Z,8.27
2022-08-25T00:26:49.111Z,9.40
2022-08-25T00:29:15.960Z,9.40
2022-08-25T00:31:44.623Z,8.65
2022-08-25T00:34:18.117Z,8.32
2022-08-25T00:36:45.524Z,8.32
2022-08-25T00:39:12.058Z,8.57
2022-08-25T00:41:41.789Z,9.20
2022-08-25T00:44:10.952Z,8.23
2022-08-25T00:46:44.769Z,8.77
2022-08-25T00:49:25.379Z,8.77
2022-08-25T00:52:03.006Z,7.72
2022-08-25T00:54:41.013Z,8.15
2022-08-25T00:57:10.941Z,7.82
2022-08-25T00:59:37.660Z,7.50
2022-08-25T01:04:34.909Z,8.40
2022-08-25T01:07:02.411Z,8.07
2022-08-25T01:09:32.593Z,8.50
2022-08-25T01:12:00.335Z,7.95
2022-08-25T01:14:28.964Z,7.10
2022-08-25T01:16:55.488Z,8.05
2022-08-25T01:19:22.047Z,8.20
2022-08-25T01:21:51.719Z,8.73
2022-08-25T01:24:47.018Z,7.53
2022-08-25T01:27:13.714Z,7.30
2022-08-25T01:32:12.094Z,7.07
2022-08-25T01:34:41.543Z,7.90
2022-08-25T01:37:09.609Z,7.68
2022-08-25T01:39:40.942Z,7.50
2022-08-25T01:42:09.077Z,7.03
2022-08-25T01:44:38.580Z,8.18
2022-08-25T01:47:06.345Z,7.80
2022-08-25T01:49:33.250Z,6.63
2022-08-25T01:52:07.416Z,8.18
2022-08-25T01:54:34.076Z,8.48
2022-08-25T01:57:00.596Z,8.07
2022-08-25T01:59:27.638Z,8.10
2022-08-25T02:01:59.552Z,7.63
2022-08-25T02:04:29.523Z,7.50
2022-08-25T02:06:56.183Z,8.45
2022-08-25T02:09:23.031Z,7.70
2022-08-25T02:11:49.482Z,7.90
2022-08-25T02:14:20.711Z,7.47
2022-08-25T02:16:50.992Z,8.15
2022-08-25T02:19:18.900Z,8.35
2022-08-25T02:21:45.967Z,8.40
2022-08-25T02:24:13.781Z,8.02
2022-08-25T02:26:41.487Z,8.13
2022-08-25T02:29:11.207Z,8.35
2022-08-25T02:31:39.231Z,8.25
2022-08-25T02:34:07.666Z,8.25
2022-08-25T02:36:34.330Z,7.22
2022-08-25T02:39:01.136Z,8.43
2022-08-25T02:41:31.134Z,7.38
2022-08-25T02:43:59.270Z,8.73
2022-08-25T02:46:25.867Z,7.75
2022-08-25T02:48:53.406Z,8.07
2022-08-25T02:51:28.625Z,7.90
2022-08-25T02:53:55.103Z,7.72
2022-08-25T02:56:22.102Z,7.82
2022-08-25T02:58:48.693Z,8.23
2022-08-25T03:01:16.661Z,7.28
2022-08-25T03:03:45.690Z,8.32
2022-08-25T03:06:14.737Z,8.15
2022-08-25T03:08:42.200Z,8.02
2022-08-25T03:11:09.427Z,8.30
2022-08-25T03:13:36.374Z,9.13
2022-08-25T03:16:04.574Z,8.32
2022-08-25T03:18:31.565Z,8.75
2022-08-25T03:20:59.490Z,9.95
2022-08-25T03:23:26.802Z,9.73
2022-08-25T03:26:15.068Z,9.07
2022-08-25T03:28:41.810Z,8.57
2022-08-25T03:33:36.996Z,8.47
2022-08-25T03:36:05.543Z,10.32
2022-08-25T03:38:32.390Z,13.32
2022-08-25T03:43:25.431Z,12.95
2022-08-25T03:46:22.311Z,14.13
2022-08-25T03:49:26.662Z,14.50
2022-08-25T03:52:22.735Z,14.65
2022-08-25T03:54:57.573Z,16.27
2022-08-25T03:57:29.166Z,15.15
2022-08-25T04:00:12.159Z,14.98
2022-08-25T04:02:47.666Z,15.88
2022-08-25T04:05:36.931Z,15.95
2022-08-25T04:11:21.340Z,14.75
2022-08-25T04:14:19.698Z,15.02
2022-08-25T04:17:01.911Z,15.15
2022-08-25T04:19:52.280Z,16.40
2022-08-25T04:22:29.924Z,13.93
2022-08-25T04:31:24.440Z,15.05
2022-08-25T04:37:28.020Z,14.73
2022-08-25T04:40:00.571Z,14.88
2022-08-25T05:45:48.828Z,18.42
2022-08-25T05:48:15.766Z,17.20
2022-08-25T05:51:10.925Z,17.48
2022-08-25T06:05:20.470Z,19.52
2022-08-25T06:32:36.708Z,17.45
2022-08-25T07:02:14.061Z,18.13
2022-08-25T07:04:48.310Z,20.20
2022-08-25T07:07:15.078Z,18.88
2022-08-25T07:09:42.100Z,19.67
2022-08-25T07:12:11.906Z,18.50
2022-08-25T07:14:42.493Z,19.67
2022-08-25T07:17:23.674Z,18.77
2022-08-25T07:19:51.668Z,18.17
2022-08-25T07:22:25.829Z,18.20
2022-08-25T07:24:52.551Z,16.98
2022-08-25T07:29:54.292Z,17.83
2022-08-25T07:32:36.226Z,21.00
2022-08-25T07:35:43.760Z,20.92
2022-08-25T07:38:09.177Z,21.95
2022-08-25T07:40:42.926Z,20.25
2022-08-25T07:43:10.569Z,22.67
2022-08-25T07:48:56.707Z,21.30
2022-08-25T07:51:38.893Z,20.05
2022-08-25T07:55:11.039Z,20.30
2022-08-25T07:58:12.358Z,21.70
2022-08-25T08:05:11.285Z,22.33
2022-08-25T08:11:05.498Z,21.38
2022-08-25T08:14:44.981Z,22.13
2022-08-25T08:17:42.391Z,20.63
2022-08-25T08:21:25.097Z,20.33
2022-08-25T08:24:10.740Z,20.15
2022-08-25T08:26:59.364Z,21.45
2022-08-25T08:29:48.302Z,21.25
2022-08-25T08:39:17.634Z,21.90
2022-08-25T08:46:11.790Z,23.88
2022-08-25T08:49:26.749Z,20.95
2022-08-25T08:52:24.399Z,22.27
2022-08-25T08:55:21.399Z,21.23
2022-08-25T08:57:52.037Z,20.85
2022-08-25T09:00:25.817Z,20.95
2022-08-25T09:03:31.279Z,19.40
2022-08-25T09:06:06.917Z,19.58
2022-08-25T09:08:33.904Z,20.17
2022-08-25T09:11:16.522Z,20.23
2022-08-25T09:15:00.300Z,19.77
2022-08-25T09:17:44.588Z,18.60
2022-08-25T09:20:35.886Z,18.65
2022-08-25T09:23:36.688Z,19.45
2022-08-25T09:26:36.497Z,18.23
2022-08-25T09:29:19.432Z,20.20
2022-08-25T09:35:57.782Z,19.30
2022-08-25T09:38:28.111Z,19.48
2022-08-25T09:41:41.468Z,21.88
2022-08-25T09:44:34.131Z,20.20
2022-08-25T09:47:23.512Z,20.90
2022-08-25T09:50:28.881Z,20.65
2022-08-25T09:53:04.335Z,19.77
2022-08-25T09:56:12.907Z,19.58
2022-08-25T09:58:39.528Z,19.92
2022-08-25T10:01:18.844Z,20.15
2022-08-25T10:04:00.111Z,20.65
2022-08-25T10:06:32.784Z,20.40
2022-08-25T10:09:07.839Z,17.60
2022-08-25T10:12:16.065Z,19.23
2022-08-25T10:14:44.411Z,18.13
2022-08-25T10:17:27.730Z,17.77
2022-08-25T10:20:17.465Z,17.15
2022-08-25T10:22:45.646Z,15.85
2022-08-25T10:25:21.976Z,16.30
2022-08-25T10:27:58.910Z,15.55
2022-08-25T10:30:36.221Z,12.48
2022-08-25T10:33:12.714Z,11.68
2022-08-25T10:35:49.680Z,12.52
2022-08-25T10:38:36.627Z,12.52
2022-08-25T10:42:13.093Z,12.93
2022-08-25T10:45:16.603Z,10.30
2022-08-25T10:48:13.533Z,9.80
2022-08-25T10:50:49.157Z,7.80
2022-08-25T10:53:19.254Z,8.77
2022-08-25T10:55:52.826Z,8.80
2022-08-25T10:58:32.277Z,7.03
2022-08-25T11:01:15.382Z,7.93
2022-08-25T11:03:51.171Z,8.00
2022-08-25T11:07:16.529Z,7.47
2022-08-25T11:16:58.051Z,7.53
2022-08-25T11:19:49.304Z,7.53
2022-08-25T11:22:29.081Z,6.78
2022-08-25T11:24:59.999Z,6.43
2022-08-25T11:27:53.286Z,6.65
2022-08-25T11:30:28.580Z,6.38
2022-08-25T11:32:56.497Z,6.95
2022-08-25T11:35:37.416Z,5.90
2022-08-25T11:38:16.708Z,6.30
2022-08-25T11:41:17.610Z,6.63
2022-08-25T11:43:53.445Z,6.43
2022-08-25T11:46:32.104Z,7.32
2022-08-25T11:49:44.456Z,6.60
2022-08-25T11:52:34.747Z,7.15
2022-08-25T12:02:52.482Z,6.30
2022-08-25T12:05:19.342Z,7.07
2022-08-25T12:08:22.696Z,6.78
2022-08-25T12:11:07.261Z,7.10
2022-08-25T12:14:16.746Z,6.45
2022-08-25T12:17:03.244Z,7.30
2022-08-25T12:19:35.879Z,5.68
2022-08-25T12:22:03.672Z,6.00
2022-08-25T12:24:47.629Z,5.78
2022-08-25T12:27:33.858Z,5.70
2022-08-25T12:30:15.586Z,5.68
2022-08-25T12:33:11.967Z,6.18
2022-08-25T12:35:57.955Z,6.55
2022-08-25T12:38:49.604Z,6.80
2022-08-25T12:41:24.191Z,6.00
2022-08-25T12:43:54.457Z,5.65
2022-08-25T12:46:21.067Z,6.25
2022-08-25T12:51:28.803Z,5.90
2022-08-25T12:54:22.551Z,6.60
2022-08-25T13:01:00.932Z,5.35
2022-08-25T13:03:48.933Z,5.63
2022-08-25T13:06:26.778Z,6.82
2022-08-25T13:09:42.046Z,6.32
2022-08-25T13:12:25.567Z,5.88
2022-08-25T13:15:28.955Z,5.90
2022-08-25T13:18:12.475Z,5.93
2022-08-25T13:23:36.431Z,6.93
2022-08-25T13:33:33.381Z,5.82
2022-08-25T13:36:21.005Z,6.10
2022-08-25T13:41:37.289Z,5.60
2022-08-25T13:44:07.297Z,5.70
2022-08-25T13:46:40.054Z,5.60
2022-08-25T13:49:09.326Z,5.95
2022-08-25T13:51:41.390Z,5.07
2022-08-25T13:54:36.021Z,5.50
2022-08-25T13:57:24.992Z,5.82
2022-08-25T14:00:00.275Z,6.03
2022-08-25T14:02:42.281Z,5.53
2022-08-25T14:05:32.386Z,5.20
2022-08-25T14:08:25.270Z,5.65
2022-08-25T14:11:08.078Z,6.15
2022-08-25T14:13:44.746Z,5.43
2022-08-25T14:16:14.299Z,5.50
2022-08-25T14:18:49.242Z,5.85
2022-08-25T14:21:19.624Z,5.95
2022-08-25T14:23:47.231Z,5.68
2022-08-25T14:26:18.634Z,5.85
2022-08-25T14:28:46.102Z,5.30
2022-08-25T14:31:16.639Z,5.22
2022-08-25T14:33:54.973Z,6.10
2022-08-25T14:36:21.688Z,5.50
2022-08-25T14:38:54.949Z,5.38
2022-08-25T14:41:23.840Z,5.60
2022-08-25T14:43:50.559Z,5.03
2022-08-25T14:46:33.502Z,4.55
2022-08-25T14:49:05.972Z,5.40
2022-08-25T14:51:33.987Z,5.45
2022-08-25T14:54:17.748Z,4.88
2022-08-25T14:56:49.800Z,5.35
2022-08-25T17:34:58.068Z,5.18
2022-08-25T17:37:30.897Z,6.00
2022-08-25T21:06:50.681Z,7.18
2022-08-25T21:09:26.166Z,6.50
2022-08-25T21:12:09.503Z,7.82
2022-08-25T21:14:48.354Z,7.68
2022-08-25T21:17:21.210Z,7.43
2022-08-25T21:20:14.518Z,7.43
2022-08-25T21:27:19.232Z,7.05
2022-08-25T21:29:31.118Z,7.38
2022-08-25T21:32:53.317Z,8.00
2022-08-25T21:35:22.437Z,7.43
2022-08-25T21:37:53.587Z,7.45
2022-08-25T21:40:28.475Z,7.38
2022-08-25T21:42:56.469Z,7.78
2022-08-25T21:45:23.254Z,8.75
2022-08-25T21:47:50.058Z,8.75
2022-08-25T21:50:19.191Z,8.18
2022-08-25T21:52:45.949Z,8.88
2022-08-25T21:55:16.094Z,9.40
2022-08-25T21:57:47.525Z,7.53
2022-08-25T22:00:15.124Z,7.60
2022-08-25T22:02:45.930Z,7.88
2022-08-25T22:05:12.826Z,7.22
2022-08-25T22:07:42.291Z,7.80
2022-08-25T22:10:15.910Z,7.13
2022-08-25T22:12:45.092Z,7.53
2022-08-25T22:15:12.478Z,7.53
2022-08-25T22:17:40.738Z,7.95
2022-08-25T22:20:08.795Z,7.47
2022-08-25T22:22:36.480Z,8.30
2022-08-25T22:25:03.987Z,8.32
2022-08-25T22:27:33.009Z,8.73
2022-08-25T22:30:02.884Z,8.20
2022-08-25T22:32:30.511Z,7.60
2022-08-25T22:34:57.178Z,8.43
2022-08-25T22:37:23.968Z,7.68
2022-08-25T22:39:50.830Z,7.43
2022-08-25T22:42:20.415Z,7.40
2022-08-25T22:44:53.931Z,7.28
2022-08-25T22:47:20.532Z,8.48
2022-08-25T22:52:14.953Z,7.88
2022-08-25T22:54:42.035Z,7.97
2022-08-25T22:57:08.660Z,7.63
2022-08-25T23:02:02.037Z,7.35
2022-08-25T23:04:31.321Z,7.75
2022-08-25T23:06:59.001Z,7.72
2022-08-25T23:09:25.694Z,7.65
2022-08-25T23:11:52.586Z,7.70
2022-08-25T23:14:20.183Z,7.53
2022-08-25T23:16:48.460Z,7.95
2022-08-25T23:19:16.942Z,7.63
2022-08-25T23:22:02.585Z,8.02
2022-08-25T23:24:30.867Z,9.13
2022-08-25T23:26:59.312Z,8.48
2022-08-25T23:29:26.342Z,8.98
2022-08-25T23:31:53.665Z,8.70
2022-08-25T23:34:22.751Z,7.72
2022-08-25T23:36:50.968Z,8.25
2022-08-25T23:39:18.134Z,7.93
2022-08-25T23:41:44.842Z,7.40
2022-08-25T23:44:17.006Z,8.43
2022-08-25T23:46:44.928Z,9.18
2022-08-25T23:49:12.391Z,8.27
2022-08-25T23:51:40.175Z,8.13
2022-08-25T23:54:10.864Z,8.05
2022-08-25T23:56:44.434Z,8.25
2022-08-25T23:59:11.820Z,7.38
